createdAt,value
2022-11-26T00:02:24.863Z,8.52
2022-11-26T00:04:52.548Z,9.32
2022-11-26T00:07:22.442Z,7.90
2022-11-26T00:09:50.425Z,7.60
2022-11-26T00:12:18.951Z,7.63
2022-11-26T00:14:47.459Z,7.63
2022-11-26T00:17:15.119Z,9.02
2022-11-26T00:19:43.098Z,7.97
2022-11-26T00:22:20.098Z,7.63
2022-11-26T00:24:47.271Z,7.78
2022-11-26T00:27:14.419Z,7.82
2022-11-26T00:29:41.859Z,7.70
2022-11-26T00:32:19.831Z,9.15
2022-11-26T00:34:47.131Z,7.50
2022-11-26T00:37:20.282Z,7.93
2022-11-26T00:39:47.927Z,9.80
2022-11-26T00:42:15.308Z,11.40
2022-11-26T00:44:42.465Z,12.88
2022-11-26T00:47:12.658Z,11.43
2022-11-26T00:49:39.835Z,9.70
2022-11-26T00:52:15.114Z,9.18
2022-11-26T00:54:42.439Z,10.20
2022-11-26T00:57:11.277Z,8.65
2022-11-26T00:59:38.444Z,8.38
2022-11-26T01:02:05.801Z,8.40
2022-11-26T01:04:36.728Z,8.20
2022-11-26T01:07:04.127Z,7.50
2022-11-26T01:09:31.659Z,7.68
2022-11-26T01:11:59.003Z,8.02
2022-11-26T01:14:26.190Z,7.35
2022-11-26T01:16:55.709Z,7.70
2022-11-26T01:19:23.057Z,7.68
2022-11-26T01:21:50.236Z,7.28
2022-11-26T01:24:17.391Z,7.82
2022-11-26T01:26:45.192Z,7.35
2022-11-26T01:29:17.004Z,7.45
2022-11-26T01:31:44.354Z,7.50
2022-11-26T01:34:11.801Z,7.50
2022-11-26T01:36:40.612Z,7.72
2022-11-26T01:39:11.659Z,9.25
2022-11-26T01:41:57.760Z,8.98
2022-11-26T01:44:26.356Z,8.75
2022-11-26T01:46:53.628Z,12.45
2022-11-26T01:49:26.158Z,9.85
2022-11-26T01:52:19.888Z,9.30
2022-11-26T01:54:48.374Z,9.60
2022-11-26T01:57:25.404Z,10.10
2022-11-26T01:59:54.331Z,13.88
2022-11-26T02:02:25.514Z,12.30
2022-11-26T02:05:05.697Z,10.07
2022-11-26T02:07:32.958Z,11.98
2022-11-26T02:10:00.874Z,11.88
2022-11-26T02:12:28.238Z,9.68
2022-11-26T02:14:56.011Z,9.68
2022-11-26T02:17:26.289Z,9.30
2022-11-26T02:20:12.444Z,7.93
2022-11-26T02:22:46.309Z,8.93
2022-11-26T02:25:22.791Z,9.07
2022-11-26T02:27:50.000Z,9.80
2022-11-26T02:30:18.600Z,12.32
2022-11-26T02:33:01.250Z,10.50
2022-11-26T02:35:28.405Z,10.88
2022-11-26T02:37:56.964Z,10.35
2022-11-26T02:40:25.078Z,10.25
2022-11-26T02:42:52.450Z,12.00
2022-11-26T02:45:24.601Z,11.77
2022-11-26T02:47:53.844Z,11.65
2022-11-26T02:50:22.910Z,10.45
2022-11-26T02:52:51.687Z,10.23
2022-11-26T02:55:20.572Z,10.32
2022-11-26T02:57:49.135Z,11.20
2022-11-26T03:00:16.957Z,9.05
2022-11-26T03:02:53.188Z,10.68
2022-11-26T03:05:20.587Z,9.27
2022-11-26T03:07:49.605Z,9.88
2022-11-26T03:10:16.963Z,9.13
2022-11-26T03:12:44.230Z,8.77
2022-11-26T03:15:11.764Z,16.67
2022-11-26T03:17:39.050Z,15.45
2022-11-26T03:20:06.603Z,15.57
2022-11-26T03:22:33.766Z,16.20
2022-11-26T03:25:01.072Z,14.65
2022-11-26T03:27:28.243Z,13.93
2022-11-26T03:29:55.386Z,14.25
2022-11-26T03:32:22.635Z,14.95
2022-11-26T03:34:49.914Z,16.15
2022-11-26T03:37:17.465Z,14.95
2022-11-26T03:39:44.696Z,16.60
2022-11-26T03:42:11.984Z,16.05
2022-11-26T03:44:39.501Z,15.63
2022-11-26T03:47:06.849Z,15.07
2022-11-26T03:49:34.223Z,11.80
2022-11-26T03:52:01.402Z,10.73
2022-11-26T03:54:28.592Z,11.40
2022-11-26T03:56:55.780Z,10.93
2022-11-26T03:59:22.964Z,11.45
2022-11-26T04:01:50.429Z,11.88
2022-11-26T04:04:17.736Z,9.27
2022-11-26T04:06:44.975Z,8.68
2022-11-26T04:09:12.289Z,9.57
2022-11-26T04:11:39.762Z,10.32
2022-11-26T04:14:06.994Z,11.82
2022-11-26T04:16:34.504Z,12.10
2022-11-26T04:19:01.882Z,12.18
2022-11-26T04:21:29.104Z,12.20
2022-11-26T04:23:56.416Z,10.75
2022-11-26T04:26:23.560Z,10.30
2022-11-26T04:28:50.769Z,11.38
2022-11-26T04:31:18.264Z,9.90
2022-11-26T04:33:45.502Z,9.93
2022-11-26T04:36:12.743Z,9.30
2022-11-26T04:38:39.975Z,8.57
2022-11-26T04:41:07.190Z,8.38
2022-11-26T04:43:34.399Z,9.02
2022-11-26T04:46:01.672Z,8.57
2022-11-26T04:48:28.870Z,8.65
2022-11-26T04:50:56.131Z,7.95
2022-11-26T04:53:25.979Z,7.72
2022-11-26T04:55:53.413Z,7.35
2022-11-26T04:58:21.167Z,9.73
2022-11-26T05:00:50.910Z,11.35
2022-11-26T05:03:18.494Z,10.63
2022-11-26T05:05:46.643Z,8.95
2022-11-26T05:08:13.884Z,9.32
2022-11-26T05:10:41.158Z,8.32
2022-11-26T05:13:08.308Z,8.40
2022-11-26T05:15:35.503Z,9.35
2022-11-26T05:18:02.916Z,9.27
2022-11-26T05:20:30.076Z,9.52
2022-11-26T05:22:57.283Z,9.27
2022-11-26T05:25:24.540Z,8.95
2022-11-26T05:27:51.767Z,11.63
2022-11-26T05:30:18.958Z,11.23
2022-11-26T05:32:46.221Z,11.60
2022-11-26T05:35:13.551Z,11.30
2022-11-26T05:37:40.687Z,12.05
2022-11-26T05:40:08.808Z,11.90
2022-11-26T05:42:36.397Z,11.88
2022-11-26T05:45:03.861Z,10.90
2022-11-26T05:47:31.067Z,9.88
2022-11-26T05:49:58.384Z,9.55
2022-11-26T05:52:25.859Z,10.63
2022-11-26T05:54:55.704Z,8.70
2022-11-26T05:57:22.933Z,7.97
2022-11-26T05:59:50.199Z,7.78
2022-11-26T06:02:17.625Z,7.32
2022-11-26T06:04:44.918Z,8.57
2022-11-26T06:07:12.165Z,8.93
2022-11-26T06:09:39.650Z,7.32
2022-11-26T06:12:07.254Z,9.90
2022-11-26T06:14:35.742Z,11.43
2022-11-26T06:17:05.382Z,10.02
2022-11-26T06:19:32.641Z,11.85
2022-11-26T06:21:59.951Z,12.32
2022-11-26T06:24:27.117Z,13.65
2022-11-26T06:26:54.552Z,13.60
2022-11-26T06:29:27.575Z,13.52
2022-11-26T06:34:22.743Z,11.55
2022-11-26T06:36:49.971Z,11.15
2022-11-26T06:39:17.223Z,10.98
2022-11-26T06:41:44.403Z,11.07
2022-11-26T06:44:11.556Z,11.32
2022-11-26T06:46:38.806Z,10.65
2022-11-26T06:49:06.684Z,10.80
2022-11-26T06:51:34.459Z,11.32
2022-11-26T06:54:01.775Z,11.35
2022-11-26T06:56:29.054Z,12.20
2022-11-26T06:58:56.491Z,14.18
2022-11-26T07:01:25.992Z,12.77
2022-11-26T07:03:53.871Z,12.88
2022-11-26T07:06:22.457Z,14.85
2022-11-26T07:08:50.150Z,14.25
2022-11-26T07:11:17.785Z,12.90
2022-11-26T07:13:44.979Z,12.95
2022-11-26T07:16:12.298Z,13.57
2022-11-26T07:18:39.771Z,16.08
2022-11-26T07:21:08.441Z,13.80
2022-11-26T07:23:35.637Z,16.77
2022-11-26T07:26:03.477Z,20.40
2022-11-26T07:28:31.047Z,12.57
2022-11-26T07:31:02.512Z,14.57
2022-11-26T07:33:30.024Z,15.05
2022-11-26T07:36:01.007Z,13.35
2022-11-26T07:38:28.891Z,15.18
2022-11-26T07:40:56.438Z,16.20
2022-11-26T07:43:23.634Z,32.95
2022-11-26T07:45:50.939Z,18.00
2022-11-26T07:48:18.154Z,16.00
2022-11-26T07:50:45.648Z,16.65
2022-11-26T07:53:13.282Z,24.63
2022-11-26T07:55:41.335Z,22.60
2022-11-26T07:58:08.956Z,17.50
2022-11-26T08:00:36.206Z,18.55
2022-11-26T08:03:03.496Z,20.83
2022-11-26T08:05:30.937Z,22.73
2022-11-26T08:07:58.135Z,21.25
2022-11-26T08:10:25.374Z,24.23
2022-11-26T08:12:52.565Z,22.67
2022-11-26T08:15:19.795Z,28.50
2022-11-26T08:17:47.021Z,24.77
2022-11-26T08:20:14.540Z,22.13
2022-11-26T08:22:41.777Z,35.25
2022-11-26T08:25:09.294Z,23.20
2022-11-26T08:27:36.504Z,22.33
2022-11-26T08:30:03.954Z,33.60
2022-11-26T08:32:31.205Z,27.70
2022-11-26T08:34:58.592Z,37.13
2022-11-26T08:37:25.865Z,26.70
2022-11-26T08:39:53.022Z,20.88
2022-11-26T08:42:20.192Z,15.68
2022-11-26T08:44:47.400Z,12.77
2022-11-26T08:47:14.598Z,14.15
2022-11-26T08:49:41.962Z,14.15
2022-11-26T08:52:09.165Z,15.95
2022-11-26T08:54:38.764Z,13.35
2022-11-26T08:57:09.273Z,10.77
2022-11-26T08:59:36.453Z,9.35
2022-11-26T09:02:03.686Z,9.52
2022-11-26T09:04:31.930Z,7.32
2022-11-26T09:06:59.120Z,6.97
2022-11-26T09:09:26.568Z,7.25
2022-11-26T09:11:57.669Z,7.03
2022-11-26T09:14:25.844Z,7.80
2022-11-26T09:16:53.762Z,7.75
2022-11-26T09:19:20.979Z,7.97
2022-11-26T09:21:48.317Z,7.97
2022-11-26T09:24:16.528Z,8.10
2022-11-26T09:26:43.885Z,8.27
2022-11-26T09:29:14.738Z,8.18
2022-11-26T09:32:00.835Z,6.97
2022-11-26T09:34:29.329Z,7.03
2022-11-26T09:36:56.549Z,8.13
2022-11-26T09:39:23.838Z,8.30
2022-11-26T09:41:54.248Z,7.85
2022-11-26T09:44:40.559Z,8.50
2022-11-26T09:47:23.229Z,9.80
2022-11-26T09:50:13.699Z,9.13
2022-11-26T09:52:44.056Z,10.60
2022-11-26T09:55:11.359Z,12.18
2022-11-26T09:57:47.491Z,13.73
2022-11-26T10:00:25.866Z,12.82
2022-11-26T10:02:54.100Z,11.48
2022-11-26T10:05:23.241Z,10.82
2022-11-26T10:08:03.522Z,9.48
2022-11-26T10:10:46.096Z,8.23
2022-11-26T10:13:20.302Z,8.82
2022-11-26T10:15:59.248Z,8.60
2022-11-26T10:18:37.237Z,7.90
2022-11-26T10:21:04.469Z,7.45
2022-11-26T10:23:39.078Z,9.85
2022-11-26T10:26:28.218Z,9.82
2022-11-26T10:29:04.544Z,8.73
2022-11-26T10:31:33.634Z,4.63
2022-11-26T10:34:02.971Z,3.67
2022-11-26T10:36:38.355Z,4.60
2022-11-26T10:39:07.239Z,6.13
2022-11-26T10:41:36.156Z,6.93
2022-11-26T10:44:22.107Z,16.45
2022-11-26T10:46:49.402Z,8.00
2022-11-26T10:49:19.798Z,6.55
2022-11-26T10:51:48.573Z,6.15
2022-11-26T10:54:26.024Z,8.48
2022-11-26T10:56:53.391Z,6.38
2022-11-26T10:59:26.188Z,4.90
2022-11-26T11:01:57.604Z,4.28
2022-11-26T11:04:28.397Z,3.50
2022-11-26T11:06:55.905Z,4.20
2022-11-26T11:09:31.134Z,4.80
2022-11-26T11:12:18.675Z,3.85
2022-11-26T11:14:46.796Z,2.63
2022-11-26T11:17:32.652Z,2.03
2022-11-26T11:20:18.369Z,1.65
2022-11-26T11:22:46.695Z,2.22
2022-11-26T11:25:25.473Z,2.78
2022-11-26T11:27:54.657Z,1.90
2022-11-26T11:30:26.630Z,42.30
2022-11-26T11:32:57.948Z,3.13
2022-11-26T11:35:26.490Z,2.35
2022-11-26T11:37:54.898Z,2.13
2022-11-26T11:40:27.538Z,13.63
2022-11-26T11:42:56.292Z,2.97
2022-11-26T11:45:29.340Z,4.50
2022-11-26T11:48:01.527Z,6.25
2022-11-26T11:50:32.512Z,2.03
2022-11-26T11:53:18.630Z,3.38
2022-11-26T11:55:48.771Z,2.33
2022-11-26T11:58:15.993Z,2.33
2022-11-26T12:00:43.096Z,1.85
2022-11-26T12:03:28.770Z,1.90
2022-11-26T12:06:05.236Z,1.50
2022-11-26T12:08:44.648Z,2.00
2022-11-26T12:11:11.756Z,2.33
2022-11-26T12:14:00.129Z,2.20
2022-11-26T12:16:29.793Z,1.60
2022-11-26T12:19:00.565Z,2.20
2022-11-26T12:21:41.657Z,2.40
2022-11-26T12:24:14.106Z,1.80
2022-11-26T12:26:45.132Z,1.90
2022-11-26T12:29:15.168Z,2.67
2022-11-26T12:32:01.493Z,2.20
2022-11-26T12:34:29.327Z,1.70
2022-11-26T12:36:56.715Z,0.95
2022-11-26T12:39:34.381Z,1.00
2022-11-26T12:42:28.033Z,1.33
2022-11-26T12:44:57.236Z,1.45
2022-11-26T12:47:31.429Z,1.30
2022-11-26T12:50:04.639Z,1.83
2022-11-26T12:52:35.405Z,1.80
2022-11-26T12:55:08.707Z,1.88
2022-11-26T12:57:40.548Z,1.10
2022-11-26T13:00:35.722Z,3.92
2022-11-26T13:03:05.532Z,2.45
2022-11-26T13:05:57.924Z,2.00
2022-11-26T13:08:30.006Z,1.58
2022-11-26T13:11:09.960Z,1.73
2022-11-26T13:13:40.204Z,1.20
2022-11-26T13:16:07.756Z,1.38
2022-11-26T13:18:36.703Z,1.63
2022-11-26T13:21:22.627Z,1.77
2022-11-26T13:23:59.089Z,1.92
2022-11-26T13:26:29.358Z,2.15
2022-11-26T13:29:14.952Z,2.13
2022-11-26T13:31:57.438Z,1.80
2022-11-26T13:34:38.572Z,2.83
2022-11-26T13:37:06.039Z,1.55
2022-11-26T13:39:52.000Z,10.77
2022-11-26T13:42:34.487Z,8.20
2022-11-26T13:45:13.444Z,5.35
2022-11-26T13:47:48.709Z,5.35
2022-11-26T13:50:19.282Z,5.18
2022-11-26T13:52:49.375Z,5.80
2022-11-26T13:55:19.536Z,5.22
2022-11-26T13:57:55.076Z,2.33
2022-11-26T14:00:26.988Z,1.70
2022-11-26T14:02:54.324Z,1.33
2022-11-26T14:05:21.705Z,1.88
2022-11-26T14:07:48.949Z,2.65
2022-11-26T14:10:34.873Z,3.33
2022-11-26T14:13:07.869Z,1.88
2022-11-26T14:15:43.901Z,2.08
2022-11-26T14:18:15.605Z,2.90
2022-11-26T14:20:59.676Z,4.88
2022-11-26T14:23:45.594Z,4.57
2022-11-26T14:26:12.769Z,4.70
2022-11-26T14:28:40.125Z,4.40
2022-11-26T14:31:21.223Z,6.32
2022-11-26T14:33:49.206Z,6.80
2022-11-26T14:36:21.440Z,6.60
2022-11-26T14:39:03.950Z,25.67
2022-11-26T14:41:43.332Z,14.50
2022-11-26T14:44:17.856Z,5.32
2022-11-26T14:46:46.397Z,6.70
2022-11-26T14:49:19.684Z,7.50
2022-11-26T14:51:47.808Z,7.78
2022-11-26T14:54:29.005Z,6.78
2022-11-26T14:56:58.059Z,6.55
2022-11-26T14:59:25.221Z,5.30
2022-11-26T15:01:55.173Z,5.13
2022-11-26T15:04:34.813Z,4.80
2022-11-26T15:07:01.981Z,4.80
2022-11-26T15:09:29.385Z,4.65
2022-11-26T15:12:02.750Z,5.10
2022-11-26T15:14:42.106Z,5.78
2022-11-26T15:17:12.651Z,5.60
2022-11-26T15:19:41.393Z,5.80
2022-11-26T15:22:17.201Z,7.93
2022-11-26T15:24:44.536Z,8.00
2022-11-26T15:27:47.252Z,7.70
2022-11-26T15:30:25.039Z,7.35
2022-11-26T15:32:59.554Z,5.63
2022-11-26T15:35:26.876Z,5.68
2022-11-26T15:37:54.053Z,6.18
2022-11-26T15:40:26.007Z,5.95
2022-11-26T15:42:55.135Z,5.05
2022-11-26T15:45:23.747Z,5.20
2022-11-26T15:47:52.664Z,7.38
2022-11-26T15:50:24.692Z,9.07
2022-11-26T15:52:54.718Z,8.48
2022-11-26T15:55:24.686Z,11.80
2022-11-26T15:57:52.620Z,11.68
2022-11-26T16:00:49.140Z,8.27
2022-11-26T16:03:35.151Z,9.60
2022-11-26T16:06:05.063Z,14.32
2022-11-26T16:08:32.661Z,29.92
2022-11-26T16:11:07.319Z,13.73
2022-11-26T16:13:35.373Z,9.82
2022-11-26T16:16:05.551Z,8.80
2022-11-26T16:18:37.705Z,13.38
2022-11-26T16:21:24.192Z,9.70
2022-11-26T16:23:54.615Z,8.60
2022-11-26T16:26:21.884Z,7.57
2022-11-26T16:28:49.206Z,16.67
2022-11-26T16:31:16.988Z,15.00
2022-11-26T16:33:44.587Z,14.70
2022-11-26T16:36:19.979Z,10.60
2022-11-26T16:38:47.621Z,10.57
2022-11-26T16:41:15.671Z,8.38
2022-11-26T16:43:43.064Z,7.63
2022-11-26T16:46:21.060Z,5.80
2022-11-26T16:48:48.859Z,8.57
2022-11-26T16:51:16.467Z,12.50
2022-11-26T16:53:44.070Z,16.55
2022-11-26T16:56:23.688Z,15.48
2022-11-26T16:58:51.312Z,19.95
2022-11-26T17:01:18.565Z,18.83
2022-11-26T17:03:46.429Z,16.30
2022-11-26T17:06:23.611Z,16.77
2022-11-26T17:08:51.201Z,17.10
2022-11-26T17:11:18.754Z,15.30
2022-11-26T17:13:46.244Z,16.85
2022-11-26T17:16:15.013Z,23.58
2022-11-26T17:18:42.466Z,22.77
2022-11-26T17:21:09.801Z,23.15
2022-11-26T17:23:36.972Z,27.63
2022-11-26T17:26:08.316Z,27.15
2022-11-26T17:28:35.449Z,24.67
2022-11-26T17:31:02.729Z,20.80
2022-11-26T17:33:29.957Z,22.10
2022-11-26T17:35:57.340Z,20.45
2022-11-26T17:38:24.492Z,22.05
2022-11-26T17:40:51.862Z,21.70
2022-11-26T17:43:19.066Z,22.08
2022-11-26T17:45:46.428Z,19.83
2022-11-26T17:48:14.298Z,17.25
2022-11-26T17:50:42.683Z,18.30
2022-11-26T17:53:09.918Z,17.38
2022-11-26T17:55:37.177Z,21.90
2022-11-26T17:58:04.463Z,22.40
2022-11-26T18:00:31.828Z,19.85
2022-11-26T18:02:59.348Z,15.95
2022-11-26T18:05:26.719Z,14.90
2022-11-26T18:07:54.521Z,12.05
2022-11-26T18:10:22.305Z,12.65
2022-11-26T18:12:50.242Z,12.13
2022-11-26T18:15:20.714Z,11.93
2022-11-26T18:17:50.752Z,11.20
2022-11-26T18:20:22.258Z,12.32
2022-11-26T18:22:53.602Z,11.10
2022-11-26T18:25:20.813Z,12.40
2022-11-26T18:27:48.107Z,12.27
2022-11-26T18:30:15.762Z,10.73
2022-11-26T18:32:42.963Z,9.80
2022-11-26T18:35:10.499Z,11.18
2022-11-26T18:37:38.817Z,9.80
2022-11-26T18:40:07.684Z,9.77
2022-11-26T18:42:37.465Z,10.80
2022-11-26T18:45:06.086Z,11.73
2022-11-26T18:47:33.804Z,13.15
2022-11-26T18:50:01.046Z,13.00
2022-11-26T18:52:28.223Z,13.60
2022-11-26T18:54:55.620Z,13.93
2022-11-26T18:57:22.850Z,13.95
2022-11-26T18:59:50.628Z,17.88
2022-11-26T19:02:17.921Z,16.75
2022-11-26T19:04:45.169Z,13.95
2022-11-26T19:07:14.272Z,17.15
2022-11-26T19:09:42.392Z,17.48
2022-11-26T19:12:09.851Z,18.30
2022-11-26T19:14:38.477Z,20.20
2022-11-26T19:17:05.965Z,17.95
2022-11-26T19:19:34.612Z,17.15
2022-11-26T19:22:02.168Z,15.07
2022-11-26T19:24:29.852Z,13.05
2022-11-26T19:26:58.341Z,15.18
2022-11-26T19:29:25.548Z,15.32
2022-11-26T19:31:53.504Z,14.75
2022-11-26T19:34:20.798Z,15.85
2022-11-26T19:36:49.028Z,13.07
2022-11-26T19:39:16.886Z,14.07
2022-11-26T19:41:44.301Z,12.02
2022-11-26T19:44:11.572Z,12.60
2022-11-26T19:46:40.959Z,13.15
2022-11-26T19:49:08.744Z,13.07
2022-11-26T19:51:35.892Z,12.25
2022-11-26T19:54:03.266Z,12.18
2022-11-26T19:56:31.490Z,12.95
2022-11-26T19:59:00.590Z,15.48
2022-11-26T20:01:30.581Z,14.05
2022-11-26T20:03:59.422Z,16.80
2022-11-26T20:06:27.498Z,17.30
2022-11-26T20:08:55.518Z,16.13
2022-11-26T20:11:22.947Z,16.88
2022-11-26T20:13:50.510Z,18.05
2022-11-26T20:16:19.919Z,17.67
2022-11-26T20:18:47.276Z,17.45
2022-11-26T20:21:16.051Z,18.67
2022-11-26T20:23:43.609Z,18.67
2022-11-26T20:26:18.362Z,16.83
2022-11-26T20:28:46.008Z,15.75
2022-11-26T20:31:17.203Z,15.73
2022-11-26T20:36:15.771Z,13.75
2022-11-26T20:38:43.073Z,15.07
2022-11-26T20:41:11.522Z,15.25
2022-11-26T20:43:39.048Z,14.07
2022-11-26T20:46:07.536Z,13.60
2022-11-26T20:48:35.302Z,13.05
2022-11-26T20:51:03.205Z,14.55
2022-11-26T20:53:30.417Z,12.80
2022-11-26T20:55:57.745Z,14.15
2022-11-26T20:58:25.855Z,15.05
2022-11-26T21:00:54.195Z,13.27
2022-11-26T21:03:26.663Z,14.20
2022-11-26T21:05:54.011Z,13.27
2022-11-26T21:08:22.219Z,13.50
2022-11-26T21:10:49.712Z,12.82
2022-11-26T21:13:18.010Z,13.60
2022-11-26T21:15:49.152Z,13.13
2022-11-26T21:18:16.992Z,13.15
2022-11-26T21:20:44.897Z,12.07
2022-11-26T21:23:13.064Z,13.63
2022-11-26T21:25:41.358Z,11.77
2022-11-26T21:28:09.379Z,11.68
2022-11-26T21:30:37.106Z,11.32
2022-11-26T21:33:08.732Z,12.45
2022-11-26T21:35:36.777Z,13.05
2022-11-26T21:38:03.996Z,14.05
2022-11-26T21:40:31.167Z,13.57
2022-11-26T21:42:58.457Z,13.95
2022-11-26T21:45:27.662Z,13.15
2022-11-26T21:47:55.013Z,12.02
2022-11-26T21:50:22.167Z,13.40
2022-11-26T21:52:49.413Z,13.18
2022-11-26T21:55:18.718Z,13.40
2022-11-26T21:57:45.903Z,12.70
2022-11-26T22:00:13.410Z,13.65
2022-11-26T22:02:40.767Z,12.13
2022-11-26T22:05:08.301Z,13.75
2022-11-26T22:07:35.620Z,12.93
2022-11-26T22:10:02.988Z,13.93
2022-11-26T22:12:30.187Z,13.05
2022-11-26T22:14:57.579Z,14.63
2022-11-26T22:17:24.818Z,12.68
2022-11-26T22:19:52.131Z,12.63
2022-11-26T22:22:19.510Z,14.88
2022-11-26T22:24:48.001Z,15.00
2022-11-26T22:27:15.288Z,14.45
2022-11-26T22:29:42.654Z,17.55
2022-11-26T22:32:09.936Z,16.30
2022-11-26T22:34:37.091Z,19.13
2022-11-26T22:37:04.468Z,16.65
2022-11-26T22:39:32.059Z,20.02
2022-11-26T22:41:59.794Z,17.10
2022-11-26T22:44:27.101Z,17.48
2022-11-26T22:46:54.344Z,19.40
2022-11-26T22:49:22.150Z,18.67
2022-11-26T22:51:49.313Z,19.42
2022-11-26T22:54:18.696Z,17.45
2022-11-26T22:56:45.915Z,18.58
2022-11-26T22:59:14.541Z,16.20
2022-11-26T23:01:42.608Z,15.38
2022-11-26T23:04:10.625Z,13.73
2022-11-26T23:06:38.617Z,17.27
2022-11-26T23:09:07.083Z,17.13
2022-11-26T23:11:39.229Z,15.50
2022-11-26T23:14:07.620Z,16.17
2022-11-26T23:16:35.764Z,13.90
2022-11-26T23:19:03.140Z,16.60
2022-11-26T23:21:31.566Z,15.48
2022-11-26T23:23:58.738Z,15.52
2022-11-26T23:26:27.969Z,17.70
2022-11-26T23:28:56.134Z,16.85
2022-11-26T23:31:27.942Z,17.63
2022-11-26T23:33:55.443Z,15.90
2022-11-26T23:36:23.098Z,16.42
2022-11-26T23:38:50.277Z,17.02
2022-11-26T23:41:17.676Z,20.45
2022-11-26T23:43:44.879Z,18.88
2022-11-26T23:46:16.551Z,17.55
2022-11-26T23:48:44.314Z,18.98
2022-11-26T23:51:12.706Z,16.35
2022-11-26T23:53:40.887Z,16.33
2022-11-26T23:56:09.320Z,15.30
2022-11-26T23:58:36.562Z,17.63
